sensor_id;sensor_type;location;lat;lon;timestamp;P1;durP1;ratioP1;P2;durP2;ratioP2
70014;SDS011;57358;51.094;6.760;2023-03-19T00:03:15;5.45;;;5.10;;
70014;SDS011;57358;51.094;6.760;2023-03-19T00:05:56;5.63;;;5.00;;
70014;SDS011;57358;51.094;6.760;2023-03-19T00:08:55;4.93;;;4.60;;
70014;SDS011;57358;51.094;6.760;2023-03-19T00:12:20;5.35;;;4.95;;
70014;SDS011;57358;51.094;6.760;2023-03-19T00:15:21;5.07;;;4.68;;
70014;SDS011;57358;51.094;6.760;2023-03-19T00:18:06;5.20;;;4.90;;
70014;SDS011;57358;51.094;6.760;2023-03-19T00:24:25;4.75;;;4.50;;
70014;SDS011;57358;51.094;6.760;2023-03-19T00:27:10;5.22;;;4.93;;
70014;SDS011;57358;51.094;6.760;2023-03-19T00:30:19;5.70;;;5.22;;
70014;SDS011;57358;51.094;6.760;2023-03-19T00:32:51;4.80;;;4.50;;
70014;SDS011;57358;51.094;6.760;2023-03-19T00:35:28;4.93;;;4.63;;
70014;SDS011;57358;51.094;6.760;2023-03-19T00:38:13;8.32;;;4.68;;
70014;SDS011;57358;51.094;6.760;2023-03-19T00:41:04;5.53;;;4.97;;
70014;SDS011;57358;51.094;6.760;2023-03-19T00:44:03;4.93;;;4.63;;
70014;SDS011;57358;51.094;6.760;2023-03-19T00:46:59;4.65;;;4.43;;
70014;SDS011;57358;51.094;6.760;2023-03-19T00:50:18;5.18;;;4.88;;
70014;SDS011;57358;51.094;6.760;2023-03-19T00:52:54;4.50;;;4.30;;
70014;SDS011;57358;51.094;6.760;2023-03-19T00:55:31;4.55;;;4.25;;
70014;SDS011;57358;51.094;6.760;2023-03-19T00:58:21;6.15;;;5.72;;
70014;SDS011;57358;51.094;6.760;2023-03-19T01:01:06;4.35;;;4.15;;
70014;SDS011;57358;51.094;6.760;2023-03-19T01:04:03;6.40;;;4.32;;
70014;SDS011;57358;51.094;6.760;2023-03-19T01:06:56;5.15;;;4.80;;
70014;SDS011;57358;51.094;6.760;2023-03-19T01:09:45;4.82;;;4.40;;
70014;SDS011;57358;51.094;6.760;2023-03-19T01:12:36;4.60;;;4.30;;
70014;SDS011;57358;51.094;6.760;2023-03-19T01:15:36;5.03;;;4.72;;
70014;SDS011;57358;51.094;6.760;2023-03-19T01:18:45;4.95;;;4.60;;
70014;SDS011;57358;51.094;6.760;2023-03-19T01:22:18;4.30;;;4.10;;
70014;SDS011;57358;51.094;6.760;2023-03-19T01:25:29;5.00;;;4.80;;
70014;SDS011;57358;51.094;6.760;2023-03-19T01:28:02;4.65;;;4.35;;
70014;SDS011;57358;51.094;6.760;2023-03-19T01:30:57;4.55;;;4.30;;
70014;SDS011;57358;51.094;6.760;2023-03-19T01:40:21;4.43;;;4.20;;
70014;SDS011;57358;51.094;6.760;2023-03-19T01:49:04;5.05;;;4.75;;
70014;SDS011;57358;51.094;6.760;2023-03-19T01:51:59;5.00;;;4.70;;
70014;SDS011;57358;51.094;6.760;2023-03-19T01:54:50;5.40;;;4.90;;
70014;SDS011;57358;51.094;6.760;2023-03-19T01:57:35;5.68;;;5.28;;
70014;SDS011;57358;51.094;6.760;2023-03-19T02:00:36;5.50;;;5.00;;
70014;SDS011;57358;51.094;6.760;2023-03-19T02:03:11;4.68;;;4.47;;
70014;SDS011;57358;51.094;6.760;2023-03-19T02:06:12;4.40;;;4.20;;
70014;SDS011;57358;51.094;6.760;2023-03-19T02:09:05;4.60;;;4.28;;
70014;SDS011;57358;51.094;6.760;2023-03-19T02:11:40;4.30;;;4.10;;
70014;SDS011;57358;51.094;6.760;2023-03-19T02:14:37;4.72;;;4.43;;
70014;SDS011;57358;51.094;6.760;2023-03-19T02:17:07;5.22;;;4.82;;
70014;SDS011;57358;51.094;6.760;2023-03-19T02:26:20;4.40;;;4.20;;
70014;SDS011;57358;51.094;6.760;2023-03-19T02:29:10;4.93;;;4.63;;
70014;SDS011;57358;51.094;6.760;2023-03-19T02:31:48;6.22;;;4.82;;
70014;SDS011;57358;51.094;6.760;2023-03-19T02:34:36;8.48;;;5.03;;
70014;SDS011;57358;51.094;6.760;2023-03-19T02:40:03;4.80;;;4.47;;
70014;SDS011;57358;51.094;6.760;2023-03-19T02:42:54;5.10;;;4.80;;
70014;SDS011;57358;51.094;6.760;2023-03-19T02:45:29;5.25;;;4.85;;
70014;SDS011;57358;51.094;6.760;2023-03-19T02:47:59;7.25;;;4.18;;
70014;SDS011;57358;51.094;6.760;2023-03-19T02:50:42;4.35;;;4.13;;
70014;SDS011;57358;51.094;6.760;2023-03-19T02:53:16;5.30;;;4.40;;
70014;SDS011;57358;51.094;6.760;2023-03-19T02:55:58;4.70;;;4.50;;
70014;SDS011;57358;51.094;6.760;2023-03-19T02:58:25;6.28;;;4.43;;
70014;SDS011;57358;51.094;6.760;2023-03-19T03:01:19;5.03;;;4.70;;
70014;SDS011;57358;51.094;6.760;2023-03-19T03:03:53;4.60;;;4.40;;
70014;SDS011;57358;51.094;6.760;2023-03-19T03:06:45;4.85;;;4.55;;
70014;SDS011;57358;51.094;6.760;2023-03-19T03:09:22;5.25;;;4.80;;
70014;SDS011;57358;51.094;6.760;2023-03-19T03:11:55;4.72;;;4.43;;
70014;SDS011;57358;51.094;6.760;2023-03-19T03:14:22;6.03;;;5.45;;
70014;SDS011;57358;51.094;6.760;2023-03-19T03:17:38;4.60;;;4.30;;
70014;SDS011;57358;51.094;6.760;2023-03-19T03:20:28;5.28;;;4.85;;
70014;SDS011;57358;51.094;6.760;2023-03-19T03:22:55;5.75;;;4.93;;
70014;SDS011;57358;51.094;6.760;2023-03-19T03:25:35;4.68;;;4.47;;
70014;SDS011;57358;51.094;6.760;2023-03-19T03:28:23;5.22;;;4.82;;
70014;SDS011;57358;51.094;6.760;2023-03-19T03:31:07;4.80;;;4.50;;
70014;SDS011;57358;51.094;6.760;2023-03-19T03:34:00;4.97;;;4.60;;
70014;SDS011;57358;51.094;6.760;2023-03-19T03:36:31;4.55;;;4.25;;
70014;SDS011;57358;51.094;6.760;2023-03-19T03:39:00;4.88;;;4.47;;
70014;SDS011;57358;51.094;6.760;2023-03-19T03:41:56;5.15;;;4.80;;
70014;SDS011;57358;51.094;6.760;2023-03-19T03:44:49;4.43;;;4.22;;
70014;SDS011;57358;51.094;6.760;2023-03-19T03:47:33;4.15;;;3.95;;
70014;SDS011;57358;51.094;6.760;2023-03-19T03:50:17;4.70;;;4.40;;
70014;SDS011;57358;51.094;6.760;2023-03-19T03:53:21;4.63;;;4.20;;
70014;SDS011;57358;51.094;6.760;2023-03-19T03:55:50;4.40;;;4.20;;
70014;SDS011;57358;51.094;6.760;2023-03-19T03:58:57;4.47;;;4.20;;
70014;SDS011;57358;51.094;6.760;2023-03-19T04:02:00;4.53;;;4.10;;
70014;SDS011;57358;51.094;6.760;2023-03-19T04:04:33;5.13;;;4.72;;
70014;SDS011;57358;51.094;6.760;2023-03-19T04:07:25;4.57;;;4.18;;
70014;SDS011;57358;51.094;6.760;2023-03-19T04:10:59;4.68;;;4.38;;
70014;SDS011;57358;51.094;6.760;2023-03-19T04:17:08;4.65;;;4.35;;
70014;SDS011;57358;51.094;6.760;2023-03-19T04:20:15;8.60;;;4.35;;
70014;SDS011;57358;51.094;6.760;2023-03-19T04:22:54;4.35;;;4.15;;
70014;SDS011;57358;51.094;6.760;2023-03-19T04:25:37;4.63;;;4.43;;
70014;SDS011;57358;51.094;6.760;2023-03-19T04:28:14;4.40;;;4.10;;
70014;SDS011;57358;51.094;6.760;2023-03-19T04:31:05;4.78;;;4.38;;
70014;SDS011;57358;51.094;6.760;2023-03-19T04:33:51;3.95;;;3.75;;
70014;SDS011;57358;51.094;6.760;2023-03-19T04:36:35;4.80;;;4.50;;
70014;SDS011;57358;51.094;6.760;2023-03-19T04:39:32;4.78;;;4.47;;
70014;SDS011;57358;51.094;6.760;2023-03-19T04:42:25;6.40;;;5.03;;
70014;SDS011;57358;51.094;6.760;2023-03-19T04:44:59;5.07;;;4.72;;
70014;SDS011;57358;51.094;6.760;2023-03-19T04:47:35;6.65;;;4.32;;
70014;SDS011;57358;51.094;6.760;2023-03-19T04:50:50;4.88;;;4.60;;
70014;SDS011;57358;51.094;6.760;2023-03-19T04:53:41;4.47;;;4.07;;
70014;SDS011;57358;51.094;6.760;2023-03-19T04:56:35;4.47;;;4.25;;
70014;SDS011;57358;51.094;6.760;2023-03-19T04:59:17;4.60;;;4.30;;
70014;SDS011;57358;51.094;6.760;2023-03-19T05:01:46;4.32;;;4.13;;
70014;SDS011;57358;51.094;6.760;2023-03-19T05:07:49;4.10;;;3.90;;
70014;SDS011;57358;51.094;6.760;2023-03-19T05:10:46;4.43;;;4.20;;
70014;SDS011;57358;51.094;6.760;2023-03-19T05:13:22;5.07;;;4.40;;
70014;SDS011;57358;51.094;6.760;2023-03-19T05:15:52;6.45;;;4.93;;
70014;SDS011;57358;51.094;6.760;2023-03-19T05:18:24;4.95;;;4.50;;
70014;SDS011;57358;51.094;6.760;2023-03-19T05:20:54;4.90;;;4.60;;
70014;SDS011;57358;51.094;6.760;2023-03-19T05:23:24;7.95;;;4.75;;
70014;SDS011;57358;51.094;6.760;2023-03-19T05:26:02;4.30;;;4.10;;
70014;SDS011;57358;51.094;6.760;2023-03-19T05:28:55;4.47;;;4.20;;
70014;SDS011;57358;51.094;6.760;2023-03-19T05:31:31;4.57;;;4.28;;
70014;SDS011;57358;51.094;6.760;2023-03-19T05:34:22;5.00;;;4.63;;
70014;SDS011;57358;51.094;6.760;2023-03-19T05:36:57;5.07;;;4.78;;
70014;SDS011;57358;51.094;6.760;2023-03-19T05:39:31;4.68;;;4.47;;
70014;SDS011;57358;51.094;6.760;2023-03-19T05:42:01;4.82;;;4.60;;
70014;SDS011;57358;51.094;6.760;2023-03-19T05:44:27;4.70;;;4.50;;
70014;SDS011;57358;51.094;6.760;2023-03-19T05:46:57;4.80;;;4.40;;
70014;SDS011;57358;51.094;6.760;2023-03-19T05:49:23;4.78;;;4.47;;
70014;SDS011;57358;51.094;6.760;2023-03-19T05:51:50;16.52;;;4.88;;
70014;SDS011;57358;51.094;6.760;2023-03-19T05:54:17;4.65;;;4.30;;
70014;SDS011;57358;51.094;6.760;2023-03-19T05:56:47;5.10;;;4.70;;
70014;SDS011;57358;51.094;6.760;2023-03-19T05:59:14;4.35;;;3.90;;
70014;SDS011;57358;51.094;6.760;2023-03-19T06:01:41;4.30;;;4.10;;
70014;SDS011;57358;51.094;6.760;2023-03-19T06:04:07;4.40;;;4.20;;
70014;SDS011;57358;51.094;6.760;2023-03-19T06:06:34;5.18;;;4.68;;
70014;SDS011;57358;51.094;6.760;2023-03-19T06:09:04;4.53;;;4.28;;
70014;SDS011;57358;51.094;6.760;2023-03-19T06:11:33;4.32;;;4.13;;
70014;SDS011;57358;51.094;6.760;2023-03-19T06:14:00;4.53;;;4.32;;
70014;SDS011;57358;51.094;6.760;2023-03-19T06:16:27;5.85;;;4.35;;
70014;SDS011;57358;51.094;6.760;2023-03-19T06:18:56;5.50;;;4.43;;
70014;SDS011;57358;51.094;6.760;2023-03-19T06:21:25;4.93;;;4.25;;
70014;SDS011;57358;51.094;6.760;2023-03-19T06:23:55;4.30;;;4.10;;
70014;SDS011;57358;51.094;6.760;2023-03-19T06:26:22;4.03;;;3.83;;
70014;SDS011;57358;51.094;6.760;2023-03-19T06:28:52;4.55;;;4.35;;
70014;SDS011;57358;51.094;6.760;2023-03-19T06:31:24;4.75;;;4.50;;
70014;SDS011;57358;51.094;6.760;2023-03-19T06:33:51;4.60;;;4.35;;
70014;SDS011;57358;51.094;6.760;2023-03-19T06:36:17;4.65;;;4.30;;
70014;SDS011;57358;51.094;6.760;2023-03-19T06:38:44;4.60;;;4.32;;
70014;SDS011;57358;51.094;6.760;2023-03-19T06:41:21;4.93;;;4.53;;
70014;SDS011;57358;51.094;6.760;2023-03-19T06:43:50;4.57;;;4.35;;
70014;SDS011;57358;51.094;6.760;2023-03-19T06:46:16;5.32;;;4.97;;
70014;SDS011;57358;51.094;6.760;2023-03-19T06:48:43;5.25;;;4.78;;
70014;SDS011;57358;51.094;6.760;2023-03-19T06:51:10;4.68;;;4.40;;
70014;SDS011;57358;51.094;6.760;2023-03-19T06:53:36;4.72;;;4.43;;
70014;SDS011;57358;51.094;6.760;2023-03-19T06:56:03;4.80;;;4.50;;
70014;SDS011;57358;51.094;6.760;2023-03-19T06:58:30;5.10;;;4.80;;
70014;SDS011;57358;51.094;6.760;2023-03-19T07:01:01;5.00;;;4.60;;
70014;SDS011;57358;51.094;6.760;2023-03-19T07:03:28;7.25;;;4.63;;
70014;SDS011;57358;51.094;6.760;2023-03-19T07:05:55;4.82;;;4.53;;
70014;SDS011;57358;51.094;6.760;2023-03-19T07:08:22;4.65;;;4.40;;
70014;SDS011;57358;51.094;6.760;2023-03-19T07:10:49;4.50;;;4.25;;
70014;SDS011;57358;51.094;6.760;2023-03-19T07:13:18;4.97;;;4.68;;
70014;SDS011;57358;51.094;6.760;2023-03-19T07:15:46;5.20;;;4.68;;
70014;SDS011;57358;51.094;6.760;2023-03-19T07:18:12;5.93;;;5.63;;
70014;SDS011;57358;51.094;6.760;2023-03-19T07:20:39;4.68;;;4.47;;
70014;SDS011;57358;51.094;6.760;2023-03-19T07:23:06;5.40;;;5.07;;
70014;SDS011;57358;51.094;6.760;2023-03-19T07:25:33;5.40;;;4.90;;
70014;SDS011;57358;51.094;6.760;2023-03-19T07:28:02;4.82;;;4.50;;
70014;SDS011;57358;51.094;6.760;2023-03-19T07:30:28;4.78;;;4.47;;
70014;SDS011;57358;51.094;6.760;2023-03-19T07:32:55;4.18;;;3.97;;
70014;SDS011;57358;51.094;6.760;2023-03-19T07:35:22;4.88;;;4.57;;
70014;SDS011;57358;51.094;6.760;2023-03-19T07:37:49;4.22;;;4.03;;
70014;SDS011;57358;51.094;6.760;2023-03-19T07:40:16;4.40;;;4.20;;
70014;SDS011;57358;51.094;6.760;2023-03-19T07:42:44;5.55;;;5.15;;
70014;SDS011;57358;51.094;6.760;2023-03-19T07:45:10;5.75;;;5.15;;
70014;SDS011;57358;51.094;6.760;2023-03-19T07:47:37;4.50;;;4.30;;
70014;SDS011;57358;51.094;6.760;2023-03-19T07:50:05;4.63;;;4.43;;
70014;SDS011;57358;51.094;6.760;2023-03-19T07:52:32;5.03;;;4.72;;
70014;SDS011;57358;51.094;6.760;2023-03-19T07:55:02;5.25;;;4.93;;
70014;SDS011;57358;51.094;6.760;2023-03-19T07:57:31;4.65;;;4.45;;
70014;SDS011;57358;51.094;6.760;2023-03-19T07:59:58;4.82;;;4.50;;
70014;SDS011;57358;51.094;6.760;2023-03-19T08:02:25;5.55;;;4.50;;
70014;SDS011;57358;51.094;6.760;2023-03-19T08:04:51;5.20;;;4.90;;
70014;SDS011;57358;51.094;6.760;2023-03-19T08:07:18;5.10;;;4.80;;
70014;SDS011;57358;51.094;6.760;2023-03-19T08:09:47;7.20;;;5.57;;
70014;SDS011;57358;51.094;6.760;2023-03-19T08:12:14;4.68;;;4.38;;
70014;SDS011;57358;51.094;6.760;2023-03-19T08:14:41;5.38;;;5.07;;
70014;SDS011;57358;51.094;6.760;2023-03-19T08:17:08;5.22;;;4.93;;
70014;SDS011;57358;51.094;6.760;2023-03-19T08:19:34;5.00;;;4.60;;
70014;SDS011;57358;51.094;6.760;2023-03-19T08:22:01;5.00;;;4.70;;
70014;SDS011;57358;51.094;6.760;2023-03-19T08:24:27;5.30;;;4.90;;
70014;SDS011;57358;51.094;6.760;2023-03-19T08:26:57;5.82;;;5.43;;
70014;SDS011;57358;51.094;6.760;2023-03-19T08:29:23;5.13;;;4.82;;
70014;SDS011;57358;51.094;6.760;2023-03-19T08:31:57;5.22;;;4.82;;
70014;SDS011;57358;51.094;6.760;2023-03-19T08:34:25;5.07;;;4.78;;
70014;SDS011;57358;51.094;6.760;2023-03-19T08:36:55;5.07;;;4.78;;
70014;SDS011;57358;51.094;6.760;2023-03-19T08:39:21;4.88;;;4.57;;
70014;SDS011;57358;51.094;6.760;2023-03-19T08:41:49;5.70;;;5.30;;
70014;SDS011;57358;51.094;6.760;2023-03-19T08:44:15;5.30;;;5.00;;
70014;SDS011;57358;51.094;6.760;2023-03-19T08:46:42;5.55;;;5.25;;
70014;SDS011;57358;51.094;6.760;2023-03-19T08:49:11;5.00;;;4.80;;
70014;SDS011;57358;51.094;6.760;2023-03-19T08:51:38;5.95;;;5.65;;
70014;SDS011;57358;51.094;6.760;2023-03-19T08:54:05;5.70;;;5.30;;
70014;SDS011;57358;51.094;6.760;2023-03-19T08:56:32;5.85;;;5.45;;
70014;SDS011;57358;51.094;6.760;2023-03-19T08:58:58;5.32;;;4.93;;
70014;SDS011;57358;51.094;6.760;2023-03-19T09:01:25;5.40;;;5.10;;
70014;SDS011;57358;51.094;6.760;2023-03-19T09:03:52;5.53;;;5.03;;
70014;SDS011;57358;51.094;6.760;2023-03-19T09:06:18;5.25;;;5.05;;
70014;SDS011;57358;51.094;6.760;2023-03-19T09:08:45;5.60;;;5.22;;
70014;SDS011;57358;51.094;6.760;2023-03-19T09:11:11;6.32;;;5.78;;
70014;SDS011;57358;51.094;6.760;2023-03-19T09:13:39;5.53;;;5.22;;
70014;SDS011;57358;51.094;6.760;2023-03-19T09:16:06;5.38;;;5.07;;
70014;SDS011;57358;51.094;6.760;2023-03-19T09:18:33;5.40;;;5.10;;
70014;SDS011;57358;51.094;6.760;2023-03-19T09:21:00;6.07;;;5.45;;
70014;SDS011;57358;51.094;6.760;2023-03-19T09:23:27;5.45;;;5.15;;
70014;SDS011;57358;51.094;6.760;2023-03-19T09:25:55;5.95;;;5.40;;
70014;SDS011;57358;51.094;6.760;2023-03-19T09:28:21;5.80;;;5.20;;
70014;SDS011;57358;51.094;6.760;2023-03-19T09:30:48;5.43;;;5.13;;
70014;SDS011;57358;51.094;6.760;2023-03-19T09:33:19;5.93;;;5.53;;
70014;SDS011;57358;51.094;6.760;2023-03-19T09:35:50;6.00;;;5.60;;
70014;SDS011;57358;51.094;6.760;2023-03-19T09:38:19;5.50;;;5.10;;
70014;SDS011;57358;51.094;6.760;2023-03-19T09:40:48;5.70;;;5.40;;
70014;SDS011;57358;51.094;6.760;2023-03-19T09:46:32;5.93;;;5.60;;
70014;SDS011;57358;51.094;6.760;2023-03-19T09:49:21;5.55;;;5.25;;
70014;SDS011;57358;51.094;6.760;2023-03-19T09:54:46;7.35;;;5.45;;
70014;SDS011;57358;51.094;6.760;2023-03-19T09:57:19;6.18;;;5.60;;
70014;SDS011;57358;51.094;6.760;2023-03-19T09:59:46;5.72;;;5.43;;
70014;SDS011;57358;51.094;6.760;2023-03-19T10:07:44;5.63;;;5.32;;
70014;SDS011;57358;51.094;6.760;2023-03-19T10:13:01;5.47;;;5.18;;
70014;SDS011;57358;51.094;6.760;2023-03-19T10:15:52;5.50;;;5.20;;
70014;SDS011;57358;51.094;6.760;2023-03-19T10:18:23;5.20;;;4.90;;
70014;SDS011;57358;51.094;6.760;2023-03-19T10:23:42;5.40;;;5.10;;
70014;SDS011;57358;51.094;6.760;2023-03-19T10:26:16;5.15;;;4.85;;
70014;SDS011;57358;51.094;6.760;2023-03-19T10:29:02;5.53;;;5.20;;
70014;SDS011;57358;51.094;6.760;2023-03-19T10:31:48;5.32;;;5.03;;
70014;SDS011;57358;51.094;6.760;2023-03-19T10:34:28;5.30;;;5.00;;
70014;SDS011;57358;51.094;6.760;2023-03-19T10:37:04;5.10;;;4.70;;
70014;SDS011;57358;51.094;6.760;2023-03-19T10:39:48;5.60;;;5.30;;
70014;SDS011;57358;51.094;6.760;2023-03-19T10:43:00;5.75;;;5.38;;
70014;SDS011;57358;51.094;6.760;2023-03-19T10:48:04;5.60;;;5.22;;
70014;SDS011;57358;51.094;6.760;2023-03-19T10:55:43;6.20;;;5.65;;
70014;SDS011;57358;51.094;6.760;2023-03-19T10:58:19;5.20;;;4.90;;
70014;SDS011;57358;51.094;6.760;2023-03-19T11:01:06;5.50;;;5.10;;
70014;SDS011;57358;51.094;6.760;2023-03-19T11:06:25;5.25;;;4.95;;
70014;SDS011;57358;51.094;6.760;2023-03-19T11:08:57;5.80;;;5.35;;
70014;SDS011;57358;51.094;6.760;2023-03-19T11:11:40;5.50;;;5.20;;
70014;SDS011;57358;51.094;6.760;2023-03-19T11:14:08;5.40;;;5.10;;
70014;SDS011;57358;51.094;6.760;2023-03-19T11:16:53;7.47;;;5.68;;
70014;SDS011;57358;51.094;6.760;2023-03-19T11:19:33;5.00;;;4.70;;
70014;SDS011;57358;51.094;6.760;2023-03-19T11:24:35;5.22;;;4.82;;
70014;SDS011;57358;51.094;6.760;2023-03-19T11:27:07;5.25;;;4.95;;
70014;SDS011;57358;51.094;6.760;2023-03-19T11:29:39;6.05;;;5.60;;
70014;SDS011;57358;51.094;6.760;2023-03-19T11:35:21;6.25;;;5.80;;
70014;SDS011;57358;51.094;6.760;2023-03-19T11:37:55;5.55;;;5.25;;
70014;SDS011;57358;51.094;6.760;2023-03-19T11:40:41;4.97;;;4.78;;
70014;SDS011;57358;51.094;6.760;2023-03-19T11:43:17;5.72;;;5.32;;
70014;SDS011;57358;51.094;6.760;2023-03-19T11:51:56;5.40;;;5.10;;
70014;SDS011;57358;51.094;6.760;2023-03-19T12:00:10;6.30;;;4.95;;
70014;SDS011;57358;51.094;6.760;2023-03-19T12:05:54;5.28;;;4.88;;
70014;SDS011;57358;51.094;6.760;2023-03-19T12:08:41;5.25;;;4.95;;
70014;SDS011;57358;51.094;6.760;2023-03-19T12:11:16;5.28;;;5.07;;
70014;SDS011;57358;51.094;6.760;2023-03-19T12:13:57;4.90;;;4.70;;
70014;SDS011;57358;51.094;6.760;2023-03-19T12:19:31;5.97;;;5.60;;
70014;SDS011;57358;51.094;6.760;2023-03-19T12:27:52;5.65;;;5.32;;
70014;SDS011;57358;51.094;6.760;2023-03-19T12:30:31;6.00;;;5.43;;
70014;SDS011;57358;51.094;6.760;2023-03-19T12:36:00;6.20;;;5.72;;
70014;SDS011;57358;51.094;6.760;2023-03-19T12:38:36;5.60;;;5.20;;
70014;SDS011;57358;51.094;6.760;2023-03-19T12:41:10;5.38;;;5.07;;
70014;SDS011;57358;51.094;6.760;2023-03-19T12:43:53;6.05;;;5.10;;
70014;SDS011;57358;51.094;6.760;2023-03-19T12:46:26;5.40;;;5.00;;
70014;SDS011;57358;51.094;6.760;2023-03-19T12:49:02;6.13;;;5.72;;
70014;SDS011;57358;51.094;6.760;2023-03-19T12:51:35;5.95;;;5.35;;
70014;SDS011;57358;51.094;6.760;2023-03-19T12:54:13;5.78;;;5.38;;
70014;SDS011;57358;51.094;6.760;2023-03-19T12:56:48;5.90;;;5.50;;
70014;SDS011;57358;51.094;6.760;2023-03-19T13:01:58;8.07;;;7.38;;
70014;SDS011;57358;51.094;6.760;2023-03-19T13:04:30;6.22;;;5.72;;
70014;SDS011;57358;51.094;6.760;2023-03-19T13:09:51;6.53;;;6.03;;
70014;SDS011;57358;51.094;6.760;2023-03-19T13:12:24;5.90;;;5.50;;
70014;SDS011;57358;51.094;6.760;2023-03-19T13:17:38;6.28;;;5.85;;
70014;SDS011;57358;51.094;6.760;2023-03-19T13:23:03;6.18;;;5.70;;
70014;SDS011;57358;51.094;6.760;2023-03-19T13:25:37;5.85;;;5.45;;
70014;SDS011;57358;51.094;6.760;2023-03-19T13:28:11;5.93;;;5.43;;
70014;SDS011;57358;51.094;6.760;2023-03-19T13:33:29;5.70;;;5.30;;
70014;SDS011;57358;51.094;6.760;2023-03-19T13:35:59;6.82;;;6.22;;
70014;SDS011;57358;51.094;6.760;2023-03-19T13:38:39;5.78;;;5.35;;
70014;SDS011;57358;51.094;6.760;2023-03-19T13:43:58;6.45;;;6.05;;
70014;SDS011;57358;51.094;6.760;2023-03-19T13:46:43;6.00;;;5.60;;
70014;SDS011;57358;51.094;6.760;2023-03-19T13:54:39;5.80;;;5.40;;
70014;SDS011;57358;51.094;6.760;2023-03-19T13:59:45;6.22;;;5.70;;
70014;SDS011;57358;51.094;6.760;2023-03-19T14:07:36;6.00;;;5.38;;
70014;SDS011;57358;51.094;6.760;2023-03-19T14:13:17;6.40;;;5.85;;
70014;SDS011;57358;51.094;6.760;2023-03-19T14:16:00;5.43;;;5.13;;
70014;SDS011;57358;51.094;6.760;2023-03-19T14:18:36;5.47;;;5.10;;
70014;SDS011;57358;51.094;6.760;2023-03-19T14:21:14;5.65;;;5.32;;
70014;SDS011;57358;51.094;6.760;2023-03-19T14:24:19;5.65;;;5.35;;
70014;SDS011;57358;51.094;6.760;2023-03-19T14:27:26;5.40;;;5.00;;
70014;SDS011;57358;51.094;6.760;2023-03-19T14:29:55;6.32;;;5.72;;
70014;SDS011;57358;51.094;6.760;2023-03-19T14:32:31;5.53;;;5.13;;
70014;SDS011;57358;51.094;6.760;2023-03-19T14:35:05;6.10;;;5.57;;
70014;SDS011;57358;51.094;6.760;2023-03-19T14:42:52;5.47;;;5.18;;
70014;SDS011;57358;51.094;6.760;2023-03-19T14:53:49;6.07;;;5.68;;
70014;SDS011;57358;51.094;6.760;2023-03-19T14:56:24;8.50;;;7.60;;
70014;SDS011;57358;51.094;6.760;2023-03-19T14:58:56;6.88;;;6.25;;
70014;SDS011;57358;51.094;6.760;2023-03-19T15:01:26;6.82;;;6.22;;
70014;SDS011;57358;51.094;6.760;2023-03-19T15:03:54;6.28;;;5.78;;
70014;SDS011;57358;51.094;6.760;2023-03-19T15:06:24;5.70;;;5.10;;
70014;SDS011;57358;51.094;6.760;2023-03-19T15:08:55;6.47;;;5.93;;
70014;SDS011;57358;51.094;6.760;2023-03-19T15:11:30;6.03;;;5.63;;
70014;SDS011;57358;51.094;6.760;2023-03-19T15:17:05;6.32;;;5.93;;
70014;SDS011;57358;51.094;6.760;2023-03-19T15:19:41;7.78;;;5.57;;
70014;SDS011;57358;51.094;6.760;2023-03-19T15:22:12;6.15;;;5.65;;
70014;SDS011;57358;51.094;6.760;2023-03-19T15:24:41;5.90;;;5.50;;
70014;SDS011;57358;51.094;6.760;2023-03-19T15:27:24;6.43;;;5.93;;
70014;SDS011;57358;51.094;6.760;2023-03-19T15:29:52;7.05;;;6.45;;
70014;SDS011;57358;51.094;6.760;2023-03-19T15:35:19;6.50;;;6.05;;
70014;SDS011;57358;51.094;6.760;2023-03-19T15:37:49;5.85;;;5.45;;
70014;SDS011;57358;51.094;6.760;2023-03-19T15:40:22;9.02;;;6.57;;
70014;SDS011;57358;51.094;6.760;2023-03-19T15:42:53;6.75;;;6.10;;
70014;SDS011;57358;51.094;6.760;2023-03-19T15:45:23;6.68;;;6.07;;
70014;SDS011;57358;51.094;6.760;2023-03-19T15:47:56;7.07;;;6.60;;
70014;SDS011;57358;51.094;6.760;2023-03-19T15:50:30;6.80;;;6.25;;
70014;SDS011;57358;51.094;6.760;2023-03-19T15:53:01;6.70;;;6.22;;
70014;SDS011;57358;51.094;6.760;2023-03-19T15:55:34;8.48;;;7.00;;
70014;SDS011;57358;51.094;6.760;2023-03-19T15:58:05;6.82;;;6.32;;
70014;SDS011;57358;51.094;6.760;2023-03-19T16:00:37;6.93;;;6.32;;
70014;SDS011;57358;51.094;6.760;2023-03-19T16:03:06;6.53;;;6.05;;
70014;SDS011;57358;51.094;6.760;2023-03-19T16:05:41;6.15;;;5.75;;
70014;SDS011;57358;51.094;6.760;2023-03-19T16:08:21;8.40;;;5.55;;
70014;SDS011;57358;51.094;6.760;2023-03-19T16:10:50;8.27;;;6.60;;
70014;SDS011;57358;51.094;6.760;2023-03-19T16:13:28;6.75;;;6.25;;
70014;SDS011;57358;51.094;6.760;2023-03-19T16:16:04;6.97;;;6.45;;
70014;SDS011;57358;51.094;6.760;2023-03-19T16:18:50;6.20;;;5.75;;
70014;SDS011;57358;51.094;6.760;2023-03-19T16:23:56;5.95;;;5.55;;
70014;SDS011;57358;51.094;6.760;2023-03-19T16:26:30;5.75;;;5.35;;
70014;SDS011;57358;51.094;6.760;2023-03-19T16:29:14;5.75;;;5.32;;
70014;SDS011;57358;51.094;6.760;2023-03-19T16:31:48;5.53;;;5.15;;
70014;SDS011;57358;51.094;6.760;2023-03-19T16:34:23;5.25;;;4.95;;
70014;SDS011;57358;51.094;6.760;2023-03-19T16:36:51;5.82;;;5.32;;
70014;SDS011;57358;51.094;6.760;2023-03-19T16:39:31;5.28;;;4.88;;
70014;SDS011;57358;51.094;6.760;2023-03-19T16:42:13;5.40;;;5.10;;
70014;SDS011;57358;51.094;6.760;2023-03-19T16:45:01;4.95;;;4.57;;
70014;SDS011;57358;51.094;6.760;2023-03-19T16:47:44;5.03;;;4.72;;
70014;SDS011;57358;51.094;6.760;2023-03-19T16:50:21;5.55;;;5.07;;
70014;SDS011;57358;51.094;6.760;2023-03-19T16:53:22;5.13;;;4.82;;
70014;SDS011;57358;51.094;6.760;2023-03-19T16:55:52;5.40;;;5.05;;
70014;SDS011;57358;51.094;6.760;2023-03-19T16:58:26;5.20;;;4.93;;
70014;SDS011;57358;51.094;6.760;2023-03-19T17:01:03;5.13;;;4.82;;
70014;SDS011;57358;51.094;6.760;2023-03-19T17:03:39;5.50;;;5.20;;
70014;SDS011;57358;51.094;6.760;2023-03-19T17:06:07;5.38;;;4.97;;
70014;SDS011;57358;51.094;6.760;2023-03-19T17:08:36;5.18;;;4.85;;
70014;SDS011;57358;51.094;6.760;2023-03-19T17:11:03;6.15;;;5.65;;
70014;SDS011;57358;51.094;6.760;2023-03-19T17:13:31;9.60;;;7.40;;
70014;SDS011;57358;51.094;6.760;2023-03-19T17:16:03;6.57;;;5.60;;
70014;SDS011;57358;51.094;6.760;2023-03-19T17:18:33;5.95;;;5.45;;
70014;SDS011;57358;51.094;6.760;2023-03-19T17:21:03;5.45;;;5.15;;
70014;SDS011;57358;51.094;6.760;2023-03-19T17:26:01;5.10;;;4.82;;
70014;SDS011;57358;51.094;6.760;2023-03-19T17:28:29;5.38;;;4.97;;
70014;SDS011;57358;51.094;6.760;2023-03-19T17:30:57;5.60;;;5.20;;
70014;SDS011;57358;51.094;6.760;2023-03-19T17:33:25;5.45;;;5.10;;
70014;SDS011;57358;51.094;6.760;2023-03-19T17:35:54;5.90;;;5.50;;
70014;SDS011;57358;51.094;6.760;2023-03-19T17:38:25;6.75;;;6.25;;
70014;SDS011;57358;51.094;6.760;2023-03-19T17:41:00;5.25;;;4.93;;
70014;SDS011;57358;51.094;6.760;2023-03-19T17:43:27;5.65;;;5.35;;
70014;SDS011;57358;51.094;6.760;2023-03-19T17:45:54;5.65;;;5.25;;
70014;SDS011;57358;51.094;6.760;2023-03-19T17:48:21;6.25;;;5.85;;
70014;SDS011;57358;51.094;6.760;2023-03-19T17:50:49;5.00;;;4.80;;
70014;SDS011;57358;51.094;6.760;2023-03-19T17:53:16;4.95;;;4.65;;
70014;SDS011;57358;51.094;6.760;2023-03-19T17:55:44;5.65;;;5.32;;
70014;SDS011;57358;51.094;6.760;2023-03-19T17:58:19;5.45;;;5.15;;
70014;SDS011;57358;51.094;6.760;2023-03-19T18:00:48;6.97;;;6.32;;
70014;SDS011;57358;51.094;6.760;2023-03-19T18:03:17;12.88;;;8.63;;
70014;SDS011;57358;51.094;6.760;2023-03-19T18:05:46;7.32;;;6.30;;
70014;SDS011;57358;51.094;6.760;2023-03-19T18:08:14;5.93;;;5.53;;
70014;SDS011;57358;51.094;6.760;2023-03-19T18:10:45;6.18;;;5.63;;
70014;SDS011;57358;51.094;6.760;2023-03-19T18:13:11;6.18;;;5.78;;
70014;SDS011;57358;51.094;6.760;2023-03-19T18:15:39;8.65;;;6.13;;